sensor_id;sensor_type;location;lat;lon;timestamp;P1;durP1;ratioP1;P2;durP2;ratioP2
40022;SDS011;25713;-35.352;149.036;2023-02-28T00:01:48;3.03;;;1.53;;
40022;SDS011;25713;-35.352;149.036;2023-02-28T00:04:17;2.30;;;1.23;;
40022;SDS011;25713;-35.352;149.036;2023-02-28T00:06:47;2.25;;;1.30;;
40022;SDS011;25713;-35.352;149.036;2023-02-28T00:09:16;2.45;;;1.38;;
40022;SDS011;25713;-35.352;149.036;2023-02-28T00:11:46;3.22;;;1.20;;
40022;SDS011;25713;-35.352;149.036;2023-02-28T00:14:15;2.15;;;1.02;;
40022;SDS011;25713;-35.352;149.036;2023-02-28T00:16:47;4.20;;;1.25;;
40022;SDS011;25713;-35.352;149.036;2023-02-28T00:19:16;1.83;;;1.47;;
40022;SDS011;25713;-35.352;149.036;2023-02-28T00:21:45;1.83;;;1.15;;
40022;SDS011;25713;-35.352;149.036;2023-02-28T00:24:15;2.65;;;1.42;;
40022;SDS011;25713;-35.352;149.036;2023-02-28T00:26:44;1.40;;;1.30;;
40022;SDS011;25713;-35.352;149.036;2023-02-28T00:29:13;2.83;;;1.63;;
40022;SDS011;25713;-35.352;149.036;2023-02-28T00:31:47;2.55;;;1.20;;
40022;SDS011;25713;-35.352;149.036;2023-02-28T00:34:16;2.20;;;1.33;;
40022;SDS011;25713;-35.352;149.036;2023-02-28T00:36:45;1.75;;;1.50;;
40022;SDS011;25713;-35.352;149.036;2023-02-28T00:39:15;3.67;;;1.35;;
40022;SDS011;25713;-35.352;149.036;2023-02-28T00:41:44;3.58;;;1.42;;
40022;SDS011;25713;-35.352;149.036;2023-02-28T00:44:14;4.03;;;1.20;;
40022;SDS011;25713;-35.352;149.036;2023-02-28T00:46:44;2.00;;;1.25;;
40022;SDS011;25713;-35.352;149.036;2023-02-28T00:49:15;3.07;;;1.40;;
40022;SDS011;25713;-35.352;149.036;2023-02-28T00:51:45;1.75;;;1.48;;
40022;SDS011;25713;-35.352;149.036;2023-02-28T00:54:14;3.38;;;1.35;;
40022;SDS011;25713;-35.352;149.036;2023-02-28T00:56:44;1.83;;;1.45;;
40022;SDS011;25713;-35.352;149.036;2023-02-28T00:59:13;4.10;;;1.88;;
40022;SDS011;25713;-35.352;149.036;2023-02-28T01:01:43;2.20;;;1.60;;
40022;SDS011;25713;-35.352;149.036;2023-02-28T01:04:16;2.90;;;1.58;;
40022;SDS011;25713;-35.352;149.036;2023-02-28T01:06:45;3.38;;;1.83;;
40022;SDS011;25713;-35.352;149.036;2023-02-28T01:09:15;2.15;;;1.33;;
40022;SDS011;25713;-35.352;149.036;2023-02-28T01:11:45;2.03;;;1.48;;
40022;SDS011;25713;-35.352;149.036;2023-02-28T01:14:15;2.67;;;1.65;;
40022;SDS011;25713;-35.352;149.036;2023-02-28T01:16:48;4.78;;;1.60;;
40022;SDS011;25713;-35.352;149.036;2023-02-28T01:19:17;3.23;;;1.57;;
40022;SDS011;25713;-35.352;149.036;2023-02-28T01:21:47;2.47;;;1.60;;
40022;SDS011;25713;-35.352;149.036;2023-02-28T01:24:17;4.28;;;1.40;;
40022;SDS011;25713;-35.352;149.036;2023-02-28T01:26:46;3.85;;;1.70;;
40022;SDS011;25713;-35.352;149.036;2023-02-28T01:29:15;2.90;;;1.55;;
40022;SDS011;25713;-35.352;149.036;2023-02-28T01:31:48;3.60;;;1.80;;
40022;SDS011;25713;-35.352;149.036;2023-02-28T01:34:17;2.63;;;1.33;;
40022;SDS011;25713;-35.352;149.036;2023-02-28T01:36:47;2.42;;;1.45;;
40022;SDS011;25713;-35.352;149.036;2023-02-28T01:39:16;1.58;;;1.40;;
40022;SDS011;25713;-35.352;149.036;2023-02-28T01:41:46;2.78;;;1.30;;
40022;SDS011;25713;-35.352;149.036;2023-02-28T01:47:21;3.67;;;1.50;;
40022;SDS011;25713;-35.352;149.036;2023-02-28T01:49:52;3.67;;;1.30;;
40022;SDS011;25713;-35.352;149.036;2023-02-28T01:52:23;2.42;;;1.27;;
40022;SDS011;25713;-35.352;149.036;2023-02-28T01:54:55;2.37;;;1.10;;
40022;SDS011;25713;-35.352;149.036;2023-02-28T01:57:27;3.47;;;1.40;;
40022;SDS011;25713;-35.352;149.036;2023-02-28T02:00:00;3.10;;;1.63;;
40022;SDS011;25713;-35.352;149.036;2023-02-28T02:02:41;2.92;;;1.30;;
40022;SDS011;25713;-35.352;149.036;2023-02-28T02:05:14;2.58;;;1.40;;
40022;SDS011;25713;-35.352;149.036;2023-02-28T02:07:46;4.63;;;1.35;;
40022;SDS011;25713;-35.352;149.036;2023-02-28T02:10:17;3.38;;;1.25;;
40022;SDS011;25713;-35.352;149.036;2023-02-28T02:12:59;1.77;;;1.45;;
40022;SDS011;25713;-35.352;149.036;2023-02-28T02:15:40;3.72;;;1.35;;
40022;SDS011;25713;-35.352;149.036;2023-02-28T02:18:21;2.25;;;1.40;;
40022;SDS011;25713;-35.352;149.036;2023-02-28T02:21:03;3.97;;;1.50;;
40022;SDS011;25713;-35.352;149.036;2023-02-28T02:24:03;2.25;;;1.40;;
40022;SDS011;25713;-35.352;149.036;2023-02-28T02:26:50;4.63;;;1.70;;
40022;SDS011;25713;-35.352;149.036;2023-02-28T02:35:47;3.03;;;1.30;;
40022;SDS011;25713;-35.352;149.036;2023-02-28T02:38:25;3.03;;;1.40;;
40022;SDS011;25713;-35.352;149.036;2023-02-28T02:41:04;2.03;;;1.20;;
40022;SDS011;25713;-35.352;149.036;2023-02-28T02:43:43;1.63;;;1.00;;
40022;SDS011;25713;-35.352;149.036;2023-02-28T02:46:16;1.38;;;1.25;;
40022;SDS011;25713;-35.352;149.036;2023-02-28T02:48:48;2.70;;;1.00;;
40022;SDS011;25713;-35.352;149.036;2023-02-28T02:51:22;2.45;;;1.20;;
40022;SDS011;25713;-35.352;149.036;2023-02-28T02:53:54;3.50;;;1.20;;
40022;SDS011;25713;-35.352;149.036;2023-02-28T02:56:28;2.22;;;1.10;;
40022;SDS011;25713;-35.352;149.036;2023-02-28T02:58:59;1.55;;;1.08;;
40022;SDS011;25713;-35.352;149.036;2023-02-28T03:01:31;1.90;;;1.08;;
40022;SDS011;25713;-35.352;149.036;2023-02-28T03:04:03;2.55;;;1.25;;
40022;SDS011;25713;-35.352;149.036;2023-02-28T03:06:37;2.20;;;1.20;;
40022;SDS011;25713;-35.352;149.036;2023-02-28T03:09:06;1.95;;;1.10;;
40022;SDS011;25713;-35.352;149.036;2023-02-28T03:11:36;2.03;;;1.10;;
40022;SDS011;25713;-35.352;149.036;2023-02-28T03:14:09;1.60;;;1.00;;
40022;SDS011;25713;-35.352;149.036;2023-02-28T03:17:15;2.53;;;1.10;;
40022;SDS011;25713;-35.352;149.036;2023-02-28T03:20:02;2.60;;;1.27;;
40022;SDS011;25713;-35.352;149.036;2023-02-28T03:22:49;1.83;;;1.20;;
40022;SDS011;25713;-35.352;149.036;2023-02-28T03:25:27;5.68;;;1.10;;
40022;SDS011;25713;-35.352;149.036;2023-02-28T03:28:07;2.42;;;1.00;;
40022;SDS011;25713;-35.352;149.036;2023-02-28T03:30:44;6.20;;;1.20;;
40022;SDS011;25713;-35.352;149.036;2023-02-28T03:33:18;2.70;;;1.10;;
40022;SDS011;25713;-35.352;149.036;2023-02-28T03:35:52;2.30;;;1.00;;
40022;SDS011;25713;-35.352;149.036;2023-02-28T03:38:29;1.88;;;1.10;;
40022;SDS011;25713;-35.352;149.036;2023-02-28T03:41:05;4.22;;;1.30;;
40022;SDS011;25713;-35.352;149.036;2023-02-28T03:43:39;2.33;;;1.10;;
40022;SDS011;25713;-35.352;149.036;2023-02-28T03:46:12;1.55;;;0.90;;
40022;SDS011;25713;-35.352;149.036;2023-02-28T03:48:45;1.52;;;1.00;;
40022;SDS011;25713;-35.352;149.036;2023-02-28T03:51:18;1.58;;;1.08;;
40022;SDS011;25713;-35.352;149.036;2023-02-28T03:53:52;1.83;;;1.02;;
40022;SDS011;25713;-35.352;149.036;2023-02-28T03:56:26;1.33;;;1.00;;
40022;SDS011;25713;-35.352;149.036;2023-02-28T03:59:01;2.03;;;1.17;;
40022;SDS011;25713;-35.352;149.036;2023-02-28T04:01:35;1.85;;;1.17;;
40022;SDS011;25713;-35.352;149.036;2023-02-28T04:04:06;2.30;;;1.30;;
40022;SDS011;25713;-35.352;149.036;2023-02-28T04:06:36;4.15;;;1.20;;
40022;SDS011;25713;-35.352;149.036;2023-02-28T04:09:09;1.77;;;1.00;;
40022;SDS011;25713;-35.352;149.036;2023-02-28T04:11:39;5.53;;;1.10;;
40022;SDS011;25713;-35.352;149.036;2023-02-28T04:14:10;3.28;;;1.30;;
40022;SDS011;25713;-35.352;149.036;2023-02-28T04:16:40;1.60;;;1.10;;
40022;SDS011;25713;-35.352;149.036;2023-02-28T04:19:11;2.15;;;1.15;;
40022;SDS011;25713;-35.352;149.036;2023-02-28T04:21:41;3.03;;;1.40;;
40022;SDS011;25713;-35.352;149.036;2023-02-28T04:24:14;1.38;;;1.10;;
40022;SDS011;25713;-35.352;149.036;2023-02-28T04:29:13;1.90;;;1.08;;
40022;SDS011;25713;-35.352;149.036;2023-02-28T04:31:46;3.75;;;1.00;;
40022;SDS011;25713;-35.352;149.036;2023-02-28T04:34:16;2.20;;;1.10;;
40022;SDS011;25713;-35.352;149.036;2023-02-28T04:36:45;1.50;;;1.00;;
40022;SDS011;25713;-35.352;149.036;2023-02-28T04:39:17;1.10;;;1.00;;
40022;SDS011;25713;-35.352;149.036;2023-02-28T04:41:46;2.28;;;1.13;;
40022;SDS011;25713;-35.352;149.036;2023-02-28T04:44:16;4.43;;;1.15;;
40022;SDS011;25713;-35.352;149.036;2023-02-28T04:46:47;1.63;;;1.10;;
40022;SDS011;25713;-35.352;149.036;2023-02-28T04:49:16;1.48;;;1.20;;
40022;SDS011;25713;-35.352;149.036;2023-02-28T04:51:46;3.33;;;1.17;;
40022;SDS011;25713;-35.352;149.036;2023-02-28T04:54:17;2.20;;;1.10;;
40022;SDS011;25713;-35.352;149.036;2023-02-28T04:56:47;2.10;;;1.20;;
40022;SDS011;25713;-35.352;149.036;2023-02-28T04:59:16;1.73;;;1.30;;
40022;SDS011;25713;-35.352;149.036;2023-02-28T05:01:46;2.13;;;1.48;;
40022;SDS011;25713;-35.352;149.036;2023-02-28T05:04:16;1.30;;;1.13;;
40022;SDS011;25713;-35.352;149.036;2023-02-28T05:06:46;4.50;;;1.42;;
40022;SDS011;25713;-35.352;149.036;2023-02-28T05:09:17;1.63;;;1.10;;
40022;SDS011;25713;-35.352;149.036;2023-02-28T05:11:47;5.75;;;1.23;;
40022;SDS011;25713;-35.352;149.036;2023-02-28T05:14:17;3.63;;;1.35;;
40022;SDS011;25713;-35.352;149.036;2023-02-28T05:16:46;1.63;;;1.10;;
40022;SDS011;25713;-35.352;149.036;2023-02-28T05:19:15;2.03;;;1.30;;
40022;SDS011;25713;-35.352;149.036;2023-02-28T05:21:49;4.15;;;1.30;;
40022;SDS011;25713;-35.352;149.036;2023-02-28T05:24:22;2.22;;;1.38;;
40022;SDS011;25713;-35.352;149.036;2023-02-28T05:26:51;1.40;;;1.30;;
40022;SDS011;25713;-35.352;149.036;2023-02-28T05:29:21;1.80;;;1.40;;
40022;SDS011;25713;-35.352;149.036;2023-02-28T05:31:51;3.22;;;1.58;;
40022;SDS011;25713;-35.352;149.036;2023-02-28T05:34:20;4.07;;;1.38;;
40022;SDS011;25713;-35.352;149.036;2023-02-28T05:36:50;2.63;;;1.40;;
40022;SDS011;25713;-35.352;149.036;2023-02-28T05:39:21;2.45;;;1.58;;
40022;SDS011;25713;-35.352;149.036;2023-02-28T05:41:51;2.37;;;1.47;;
40022;SDS011;25713;-35.352;149.036;2023-02-28T05:44:20;2.65;;;1.40;;
40022;SDS011;25713;-35.352;149.036;2023-02-28T05:46:50;3.78;;;1.70;;
40022;SDS011;25713;-35.352;149.036;2023-02-28T05:49:19;3.00;;;1.50;;
40022;SDS011;25713;-35.352;149.036;2023-02-28T05:51:48;2.13;;;1.35;;
40022;SDS011;25713;-35.352;149.036;2023-02-28T05:54:18;1.60;;;1.50;;
40022;SDS011;25713;-35.352;149.036;2023-02-28T05:56:49;4.45;;;1.60;;
40022;SDS011;25713;-35.352;149.036;2023-02-28T05:59:18;2.33;;;1.40;;
40022;SDS011;25713;-35.352;149.036;2023-02-28T06:01:48;1.85;;;1.58;;
40022;SDS011;25713;-35.352;149.036;2023-02-28T06:04:18;2.55;;;1.70;;
40022;SDS011;25713;-35.352;149.036;2023-02-28T06:06:48;4.22;;;1.60;;
40022;SDS011;25713;-35.352;149.036;2023-02-28T06:09:18;2.75;;;1.50;;
40022;SDS011;25713;-35.352;149.036;2023-02-28T06:11:50;2.63;;;1.40;;
40022;SDS011;25713;-35.352;149.036;2023-02-28T06:14:19;2.65;;;1.40;;
40022;SDS011;25713;-35.352;149.036;2023-02-28T06:16:49;4.15;;;1.60;;
40022;SDS011;25713;-35.352;149.036;2023-02-28T06:19:18;2.53;;;1.50;;
40022;SDS011;25713;-35.352;149.036;2023-02-28T06:21:49;2.40;;;1.70;;
40022;SDS011;25713;-35.352;149.036;2023-02-28T06:24:18;3.83;;;1.70;;
40022;SDS011;25713;-35.352;149.036;2023-02-28T06:26:52;3.53;;;1.60;;
40022;SDS011;25713;-35.352;149.036;2023-02-28T06:29:21;3.00;;;1.58;;
40022;SDS011;25713;-35.352;149.036;2023-02-28T06:31:51;5.10;;;1.50;;
40022;SDS011;25713;-35.352;149.036;2023-02-28T06:34:20;2.72;;;1.70;;
40022;SDS011;25713;-35.352;149.036;2023-02-28T06:36:50;3.15;;;1.40;;
40022;SDS011;25713;-35.352;149.036;2023-02-28T06:39:20;2.95;;;1.70;;
40022;SDS011;25713;-35.352;149.036;2023-02-28T06:41:52;3.30;;;1.67;;
40022;SDS011;25713;-35.352;149.036;2023-02-28T06:44:21;1.60;;;1.45;;
40022;SDS011;25713;-35.352;149.036;2023-02-28T06:46:51;4.45;;;1.52;;
40022;SDS011;25713;-35.352;149.036;2023-02-28T06:49:20;2.97;;;1.73;;
40022;SDS011;25713;-35.352;149.036;2023-02-28T06:51:50;1.90;;;1.58;;
40022;SDS011;25713;-35.352;149.036;2023-02-28T06:54:19;2.78;;;1.70;;
40022;SDS011;25713;-35.352;149.036;2023-02-28T06:56:52;2.97;;;1.50;;
40022;SDS011;25713;-35.352;149.036;2023-02-28T06:59:22;3.20;;;1.70;;
40022;SDS011;25713;-35.352;149.036;2023-02-28T07:04:22;2.45;;;1.50;;
40022;SDS011;25713;-35.352;149.036;2023-02-28T07:06:52;2.25;;;1.58;;
40022;SDS011;25713;-35.352;149.036;2023-02-28T07:09:21;3.25;;;1.50;;
40022;SDS011;25713;-35.352;149.036;2023-02-28T07:11:53;2.28;;;1.70;;
40022;SDS011;25713;-35.352;149.036;2023-02-28T07:14:23;2.08;;;1.60;;
40022;SDS011;25713;-35.352;149.036;2023-02-28T07:16:52;6.13;;;1.70;;
40022;SDS011;25713;-35.352;149.036;2023-02-28T07:19:22;3.20;;;1.70;;
40022;SDS011;25713;-35.352;149.036;2023-02-28T07:21:51;4.78;;;1.63;;
40022;SDS011;25713;-35.352;149.036;2023-02-28T07:24:20;2.90;;;1.60;;
40022;SDS011;25713;-35.352;149.036;2023-02-28T07:26:50;2.50;;;1.70;;
40022;SDS011;25713;-35.352;149.036;2023-02-28T07:29:22;2.83;;;1.70;;
40022;SDS011;25713;-35.352;149.036;2023-02-28T07:31:51;4.50;;;1.60;;
40022;SDS011;25713;-35.352;149.036;2023-02-28T07:34:21;2.28;;;1.83;;
40022;SDS011;25713;-35.352;149.036;2023-02-28T07:36:52;2.08;;;1.63;;
40022;SDS011;25713;-35.352;149.036;2023-02-28T07:39:22;5.25;;;1.60;;
40022;SDS011;25713;-35.352;149.036;2023-02-28T07:41:53;2.13;;;1.50;;
40022;SDS011;25713;-35.352;149.036;2023-02-28T07:44:26;2.53;;;1.67;;
40022;SDS011;25713;-35.352;149.036;2023-02-28T07:46:56;1.83;;;1.60;;
40022;SDS011;25713;-35.352;149.036;2023-02-28T07:49:25;4.03;;;1.60;;
40022;SDS011;25713;-35.352;149.036;2023-02-28T07:51:55;2.00;;;1.67;;
40022;SDS011;25713;-35.352;149.036;2023-02-28T07:54:24;3.38;;;1.70;;
40022;SDS011;25713;-35.352;149.036;2023-02-28T07:56:55;2.40;;;1.60;;
40022;SDS011;25713;-35.352;149.036;2023-02-28T07:59:25;3.90;;;1.50;;
40022;SDS011;25713;-35.352;149.036;2023-02-28T08:01:55;2.15;;;1.65;;
40022;SDS011;25713;-35.352;149.036;2023-02-28T08:04:26;1.75;;;1.40;;
40022;SDS011;25713;-35.352;149.036;2023-02-28T08:06:55;3.83;;;1.88;;
40022;SDS011;25713;-35.352;149.036;2023-02-28T08:09:25;1.85;;;1.60;;
40022;SDS011;25713;-35.352;149.036;2023-02-28T08:11:57;2.67;;;1.70;;
40022;SDS011;25713;-35.352;149.036;2023-02-28T08:14:26;4.72;;;1.63;;
40022;SDS011;25713;-35.352;149.036;2023-02-28T08:16:56;2.17;;;1.70;;
40022;SDS011;25713;-35.352;149.036;2023-02-28T08:19:25;2.03;;;1.45;;
40022;SDS011;25713;-35.352;149.036;2023-02-28T08:21:55;2.97;;;1.45;;
40022;SDS011;25713;-35.352;149.036;2023-02-28T08:24:24;2.05;;;1.58;;
40022;SDS011;25713;-35.352;149.036;2023-02-28T08:26:54;5.38;;;1.83;;
40022;SDS011;25713;-35.352;149.036;2023-02-28T08:29:25;2.00;;;1.67;;
40022;SDS011;25713;-35.352;149.036;2023-02-28T08:31:55;3.13;;;1.75;;
40022;SDS011;25713;-35.352;149.036;2023-02-28T08:34:24;2.65;;;1.52;;
40022;SDS011;25713;-35.352;149.036;2023-02-28T08:36:54;3.08;;;1.30;;
40022;SDS011;25713;-35.352;149.036;2023-02-28T08:39:23;1.95;;;1.40;;
40022;SDS011;25713;-35.352;149.036;2023-02-28T08:41:53;4.07;;;1.65;;
40022;SDS011;25713;-35.352;149.036;2023-02-28T08:44:24;2.00;;;1.45;;
40022;SDS011;25713;-35.352;149.036;2023-02-28T08:46:54;1.70;;;1.58;;
40022;SDS011;25713;-35.352;149.036;2023-02-28T08:49:23;2.90;;;1.40;;
40022;SDS011;25713;-35.352;149.036;2023-02-28T08:51:53;4.43;;;1.42;;
40022;SDS011;25713;-35.352;149.036;2023-02-28T08:54:22;2.50;;;1.60;;
40022;SDS011;25713;-35.352;149.036;2023-02-28T08:56:52;3.17;;;1.70;;
40022;SDS011;25713;-35.352;149.036;2023-02-28T08:59:22;3.35;;;1.60;;
40022;SDS011;25713;-35.352;149.036;2023-02-28T09:01:53;2.47;;;1.40;;
40022;SDS011;25713;-35.352;149.036;2023-02-28T09:04:23;2.55;;;1.50;;
40022;SDS011;25713;-35.352;149.036;2023-02-28T09:06:52;2.00;;;1.60;;
40022;SDS011;25713;-35.352;149.036;2023-02-28T09:09:22;3.78;;;1.45;;
40022;SDS011;25713;-35.352;149.036;2023-02-28T09:11:52;2.53;;;1.63;;
40022;SDS011;25713;-35.352;149.036;2023-02-28T09:14:25;1.80;;;1.48;;
40022;SDS011;25713;-35.352;149.036;2023-02-28T09:16:55;2.25;;;1.27;;
40022;SDS011;25713;-35.352;149.036;2023-02-28T09:19:25;1.88;;;1.50;;
40022;SDS011;25713;-35.352;149.036;2023-02-28T09:21:55;2.88;;;1.25;;
40022;SDS011;25713;-35.352;149.036;2023-02-28T09:24:24;2.88;;;1.45;;
40022;SDS011;25713;-35.352;149.036;2023-02-28T09:26:54;6.00;;;1.60;;
40022;SDS011;25713;-35.352;149.036;2023-02-28T09:29:23;2.00;;;1.42;;
40022;SDS011;25713;-35.352;149.036;2023-02-28T09:31:55;2.10;;;1.70;;
40022;SDS011;25713;-35.352;149.036;2023-02-28T09:34:24;2.03;;;1.40;;
40022;SDS011;25713;-35.352;149.036;2023-02-28T09:36:54;2.40;;;1.50;;
40022;SDS011;25713;-35.352;149.036;2023-02-28T09:39:23;2.30;;;1.50;;
40022;SDS011;25713;-35.352;149.036;2023-02-28T09:41:53;3.20;;;1.70;;
40022;SDS011;25713;-35.352;149.036;2023-02-28T09:44:29;5.88;;;1.40;;
40022;SDS011;25713;-35.352;149.036;2023-02-28T09:47:05;2.38;;;1.55;;
40022;SDS011;25713;-35.352;149.036;2023-02-28T09:49:41;1.50;;;1.40;;
40022;SDS011;25713;-35.352;149.036;2023-02-28T09:52:14;3.05;;;1.50;;
40022;SDS011;25713;-35.352;149.036;2023-02-28T09:54:48;2.85;;;1.92;;
40022;SDS011;25713;-35.352;149.036;2023-02-28T09:57:19;1.50;;;1.40;;
40022;SDS011;25713;-35.352;149.036;2023-02-28T10:00:05;1.67;;;1.42;;
40022;SDS011;25713;-35.352;149.036;2023-02-28T10:02:48;2.33;;;1.40;;
40022;SDS011;25713;-35.352;149.036;2023-02-28T10:05:23;1.67;;;1.50;;
40022;SDS011;25713;-35.352;149.036;2023-02-28T10:07:58;2.15;;;1.50;;
40022;SDS011;25713;-35.352;149.036;2023-02-28T10:10:35;2.42;;;1.40;;
40022;SDS011;25713;-35.352;149.036;2023-02-28T10:13:12;2.70;;;1.50;;
40022;SDS011;25713;-35.352;149.036;2023-02-28T10:15:54;3.33;;;1.60;;
40022;SDS011;25713;-35.352;149.036;2023-02-28T10:18:27;2.30;;;1.70;;
40022;SDS011;25713;-35.352;149.036;2023-02-28T10:21:03;3.97;;;1.70;;
40022;SDS011;25713;-35.352;149.036;2023-02-28T10:23:34;2.72;;;1.60;;
40022;SDS011;25713;-35.352;149.036;2023-02-28T10:28:39;3.30;;;1.77;;
40022;SDS011;25713;-35.352;149.036;2023-02-28T10:31:10;3.58;;;1.73;;
40022;SDS011;25713;-35.352;149.036;2023-02-28T10:33:43;4.82;;;1.77;;
40022;SDS011;25713;-35.352;149.036;2023-02-28T10:36:14;4.05;;;1.80;;
40022;SDS011;25713;-35.352;149.036;2023-02-28T10:38:45;5.28;;;1.92;;
40022;SDS011;25713;-35.352;149.036;2023-02-28T10:41:16;5.60;;;1.63;;
40022;SDS011;25713;-35.352;149.036;2023-02-28T10:43:54;2.60;;;1.60;;
40022;SDS011;25713;-35.352;149.036;2023-02-28T10:46:43;3.17;;;1.85;;
40022;SDS011;25713;-35.352;149.036;2023-02-28T10:49:13;4.82;;;1.80;;
40022;SDS011;25713;-35.352;149.036;2023-02-28T10:51:45;3.35;;;1.77;;
40022;SDS011;25713;-35.352;149.036;2023-02-28T10:54:16;4.72;;;2.00;;
40022;SDS011;25713;-35.352;149.036;2023-02-28T10:57:07;3.20;;;1.48;;
40022;SDS011;25713;-35.352;149.036;2023-02-28T10:59:44;4.00;;;1.73;;
40022;SDS011;25713;-35.352;149.036;2023-02-28T11:02:33;3.67;;;1.60;;
40022;SDS011;25713;-35.352;149.036;2023-02-28T11:05:15;3.28;;;2.08;;
40022;SDS011;25713;-35.352;149.036;2023-02-28T11:07:55;3.60;;;1.85;;
40022;SDS011;25713;-35.352;149.036;2023-02-28T11:10:30;3.53;;;2.30;;
40022;SDS011;25713;-35.352;149.036;2023-02-28T11:13:01;3.70;;;1.67;;
40022;SDS011;25713;-35.352;149.036;2023-02-28T11:15:31;4.57;;;1.67;;
40022;SDS011;25713;-35.352;149.036;2023-02-28T11:18:06;2.85;;;1.50;;
40022;SDS011;25713;-35.352;149.036;2023-02-28T11:20:49;5.43;;;1.95;;
40022;SDS011;25713;-35.352;149.036;2023-02-28T11:23:20;2.87;;;1.80;;
40022;SDS011;25713;-35.352;149.036;2023-02-28T11:25:52;4.68;;;1.70;;
40022;SDS011;25713;-35.352;149.036;2023-02-28T11:28:25;7.30;;;2.17;;
40022;SDS011;25713;-35.352;149.036;2023-02-28T11:31:08;2.95;;;1.70;;
40022;SDS011;25713;-35.352;149.036;2023-02-28T11:33:47;4.43;;;2.03;;
40022;SDS011;25713;-35.352;149.036;2023-02-28T11:36:19;6.75;;;2.15;;
40022;SDS011;25713;-35.352;149.036;2023-02-28T11:38:50;4.63;;;1.70;;
40022;SDS011;25713;-35.352;149.036;2023-02-28T11:41:28;3.05;;;2.10;;
40022;SDS011;25713;-35.352;149.036;2023-02-28T11:44:20;3.60;;;1.92;;
40022;SDS011;25713;-35.352;149.036;2023-02-28T11:46:59;5.22;;;2.10;;
40022;SDS011;25713;-35.352;149.036;2023-02-28T11:49:39;2.83;;;1.75;;
40022;SDS011;25713;-35.352;149.036;2023-02-28T11:52:20;5.68;;;2.42;;
40022;SDS011;25713;-35.352;149.036;2023-02-28T11:54:59;2.85;;;1.92;;
40022;SDS011;25713;-35.352;149.036;2023-02-28T11:57:47;4.32;;;2.00;;
40022;SDS011;25713;-35.352;149.036;2023-02-28T12:00:37;3.80;;;2.40;;
40022;SDS011;25713;-35.352;149.036;2023-02-28T12:03:16;2.93;;;2.00;;
40022;SDS011;25713;-35.352;149.036;2023-02-28T12:05:57;3.22;;;1.77;;
40022;SDS011;25713;-35.352;149.036;2023-02-28T12:08:42;3.90;;;2.10;;
40022;SDS011;25713;-35.352;149.036;2023-02-28T12:11:25;3.33;;;1.80;;
40022;SDS011;25713;-35.352;149.036;2023-02-28T12:14:22;4.03;;;1.85;;
40022;SDS011;25713;-35.352;149.036;2023-02-28T12:17:18;3.47;;;2.10;;
40022;SDS011;25713;-35.352;149.036;2023-02-28T12:19:54;2.47;;;1.95;;
40022;SDS011;25713;-35.352;149.036;2023-02-28T12:22:31;3.40;;;1.90;;
40022;SDS011;25713;-35.352;149.036;2023-02-28T12:28:10;3.55;;;1.90;;
40022;SDS011;25713;-35.352;149.036;2023-02-28T12:30:44;3.83;;;2.00;;
40022;SDS011;25713;-35.352;149.036;2023-02-28T12:33:20;3.42;;;2.22;;
40022;SDS011;25713;-35.352;149.036;2023-02-28T12:35:54;3.25;;;2.10;;
40022;SDS011;25713;-35.352;149.036;2023-02-28T12:38:27;3.00;;;2.37;;
40022;SDS011;25713;-35.352;149.036;2023-02-28T12:41:03;4.03;;;2.38;;
40022;SDS011;25713;-35.352;149.036;2023-02-28T12:43:38;3.60;;;1.90;;
40022;SDS011;25713;-35.352;149.036;2023-02-28T12:46:12;3.53;;;2.28;;
40022;SDS011;25713;-35.352;149.036;2023-02-28T12:48:46;4.30;;;2.20;;
40022;SDS011;25713;-35.352;149.036;2023-02-28T12:51:18;3.47;;;2.20;;
40022;SDS011;25713;-35.352;149.036;2023-02-28T12:53:53;2.72;;;2.30;;
40022;SDS011;25713;-35.352;149.036;2023-02-28T12:59:04;3.75;;;2.60;;
40022;SDS011;25713;-35.352;149.036;2023-02-28T13:01:47;3.13;;;2.20;;
40022;SDS011;25713;-35.352;149.036;2023-02-28T13:07:32;3.72;;;2.35;;
40022;SDS011;25713;-35.352;149.036;2023-02-28T13:10:39;4.18;;;2.00;;
40022;SDS011;25713;-35.352;149.036;2023-02-28T13:13:14;2.88;;;2.22;;
40022;SDS011;25713;-35.352;149.036;2023-02-28T13:15:58;4.10;;;2.42;;
40022;SDS011;25713;-35.352;149.036;2023-02-28T13:18:30;3.95;;;2.38;;
40022;SDS011;25713;-35.352;149.036;2023-02-28T13:21:03;3.72;;;2.47;;
40022;SDS011;25713;-35.352;149.036;2023-02-28T13:23:38;4.50;;;2.03;;
40022;SDS011;25713;-35.352;149.036;2023-02-28T13:26:34;3.95;;;2.08;;
40022;SDS011;25713;-35.352;149.036;2023-02-28T13:29:40;3.58;;;2.28;;
40022;SDS011;25713;-35.352;149.036;2023-02-28T13:35:14;3.75;;;2.50;;
40022;SDS011;25713;-35.352;149.036;2023-02-28T13:38:12;3.25;;;2.15;;
40022;SDS011;25713;-35.352;149.036;2023-02-28T13:43:20;3.85;;;2.38;;
40022;SDS011;25713;-35.352;149.036;2023-02-28T13:46:11;2.63;;;1.98;;
40022;SDS011;25713;-35.352;149.036;2023-02-28T13:48:41;3.60;;;2.45;;
40022;SDS011;25713;-35.352;149.036;2023-02-28T13:54:22;4.30;;;2.35;;
40022;SDS011;25713;-35.352;149.036;2023-02-28T13:57:04;3.58;;;2.25;;
40022;SDS011;25713;-35.352;149.036;2023-02-28T13:59:49;3.70;;;2.78;;
40022;SDS011;25713;-35.352;149.036;2023-02-28T14:02:36;3.28;;;2.50;;
40022;SDS011;25713;-35.352;149.036;2023-02-28T14:05:22;4.38;;;2.40;;
40022;SDS011;25713;-35.352;149.036;2023-02-28T14:07:53;3.60;;;2.50;;
40022;SDS011;25713;-35.352;149.036;2023-02-28T14:10:26;4.80;;;2.78;;
40022;SDS011;25713;-35.352;149.036;2023-02-28T14:13:01;2.83;;;2.35;;
40022;SDS011;25713;-35.352;149.036;2023-02-28T14:15:42;4.03;;;2.58;;
40022;SDS011;25713;-35.352;149.036;2023-02-28T14:18:16;4.93;;;2.40;;
40022;SDS011;25713;-35.352;149.036;2023-02-28T14:20:58;2.72;;;2.25;;
40022;SDS011;25713;-35.352;149.036;2023-02-28T14:26:51;6.47;;;3.00;;
40022;SDS011;25713;-35.352;149.036;2023-02-28T14:32:58;3.78;;;2.50;;
40022;SDS011;25713;-35.352;149.036;2023-02-28T14:38:37;2.70;;;2.28;;
40022;SDS011;25713;-35.352;149.036;2023-02-28T14:41:16;4.10;;;2.67;;
40022;SDS011;25713;-35.352;149.036;2023-02-28T14:43:52;3.40;;;2.58;;
40022;SDS011;25713;-35.352;149.036;2023-02-28T14:46:23;4.28;;;2.60;;
40022;SDS011;25713;-35.352;149.036;2023-02-28T14:48:58;4.22;;;2.63;;
40022;SDS011;25713;-35.352;149.036;2023-02-28T15:52:14;2.92;;;2.20;;
40022;SDS011;25713;-35.352;149.036;2023-02-28T15:54:45;3.38;;;2.30;;
40022;SDS011;25713;-35.352;149.036;2023-02-28T15:57:17;2.97;;;2.20;;
40022;SDS011;25713;-35.352;149.036;2023-02-28T15:59:53;3.55;;;1.92;;
40022;SDS011;25713;-35.352;149.036;2023-02-28T16:02:29;2.53;;;1.98;;
40022;SDS011;25713;-35.352;149.036;2023-02-28T16:05:01;3.72;;;2.47;;
40022;SDS011;25713;-35.352;149.036;2023-02-28T16:07:48;3.50;;;2.30;;
40022;SDS011;25713;-35.352;149.036;2023-02-28T16:10:18;3.53;;;1.98;;
40022;SDS011;25713;-35.352;149.036;2023-02-28T16:12:48;3.97;;;2.20;;
40022;SDS011;25713;-35.352;149.036;2023-02-28T16:15:18;5.32;;;2.47;;
40022;SDS011;25713;-35.352;149.036;2023-02-28T16:17:49;5.03;;;2.13;;
40022;SDS011;25713;-35.352;149.036;2023-02-28T16:20:20;4.47;;;2.10;;
40022;SDS011;25713;-35.352;149.036;2023-02-28T16:22:52;2.77;;;2.20;;
40022;SDS011;25713;-35.352;149.036;2023-02-28T16:27:53;3.13;;;2.13;;
40022;SDS011;25713;-35.352;149.036;2023-02-28T16:30:23;3.30;;;2.30;;
40022;SDS011;25713;-35.352;149.036;2023-02-28T16:32:54;3.53;;;2.00;;